Time;durP1;ratioP1;P1;durP2;ratioP2;P2;SDS_P1;SDS_P2;PMS_P1;PMS_P2;Temp;Humidity;BMP_temperature;BMP_pressure;BME280_temperature;BME280_humidity;BME280_pressure;Samples;Min_cycle;Max_cycle;Signal;HPM_P1;HPM_P2
2022/10/14 00:02:27;;;;;;;37.73;30.73;;;14.40;99.90;;;;;;6218685;28;20472;-58
2022/10/14 00:05:30;;;;;;;32.60;29.33;;;14.30;99.90;;;;;;6235765;28;20480;-58
2022/10/14 00:08:34;;;;;;;32.67;29.10;;;14.30;99.90;;;;;;6227536;28;20488;-58
2022/10/14 00:11:38;;;;;;;35.67;32.03;;;14.20;99.90;;;;;;6240707;28;20529;-58
2022/10/14 00:14:42;;;;;;;34.13;30.40;;;14.20;99.90;;;;;;6237454;28;20472;-58
2022/10/14 00:17:45;;;;;;;35.37;31.57;;;14.20;99.90;;;;;;6243611;28;20483;-58
2022/10/14 00:20:54;;;;;;;32.90;29.37;;;14.20;99.90;;;;;;6249675;28;20486;-58
2022/10/14 00:23:58;;;;;;;33.83;29.80;;;14.20;99.90;;;;;;6249862;28;20482;-58
2022/10/14 00:27:01;;;;;;;34.87;30.60;;;14.10;99.90;;;;;;6249388;28;20758;-58
2022/10/14 00:30:06;;;;;;;33.73;30.13;;;14.10;99.90;;;;;;6248906;28;20471;-58
2022/10/14 00:33:10;;;;;;;33.87;30.00;;;14.00;99.90;;;;;;6249056;28;20815;-58
2022/10/14 00:36:14;;;;;;;34.60;29.23;;;14.00;99.90;;;;;;6248918;28;20866;-58
2022/10/14 00:39:18;;;;;;;37.97;32.70;;;14.00;99.90;;;;;;6245143;28;20520;-58
2022/10/14 00:42:21;;;;;;;39.80;33.03;;;14.00;99.90;;;;;;6248868;28;20486;-58
2022/10/14 00:45:26;;;;;;;36.67;31.17;;;14.00;99.90;;;;;;6249323;28;20487;-58
2022/10/14 00:48:29;;;;;;;32.87;28.97;;;14.00;99.90;;;;;;6248325;28;20536;-58
2022/10/14 00:51:32;;;;;;;34.33;28.13;;;13.90;99.90;;;;;;6247381;28;21144;-58
2022/10/14 00:54:38;;;;;;;46.77;30.87;;;13.90;99.90;;;;;;6246830;28;20857;-58
2022/10/14 00:57:41;;;;;;;30.40;27.10;;;13.90;99.90;;;;;;6252208;28;20482;-58
2022/10/14 01:00:46;;;;;;;31.10;27.93;;;13.80;99.90;;;;;;6252955;28;20486;-58
2022/10/14 01:03:49;;;;;;;33.40;29.30;;;13.80;99.90;;;;;;6253427;28;20471;-56
2022/10/14 01:07:05;;;;;;;33.23;28.00;;;13.80;99.90;;;;;;6253778;28;20471;-56
2022/10/14 01:10:14;;;;;;;31.83;27.37;;;13.70;99.90;;;;;;6253756;28;20475;-56
2022/10/14 01:13:26;;;;;;;33.30;26.90;;;13.70;99.90;;;;;;6252689;28;20479;-56
2022/10/14 01:16:44;;;;;;;36.60;27.97;;;13.70;99.90;;;;;;6232099;28;20821;-56
2022/10/14 01:20:05;;;;;;;32.90;29.37;;;13.70;99.90;;;;;;6235420;28;20455;-56
2022/10/14 01:23:35;;;;;;;29.97;26.80;;;13.60;99.90;;;;;;6253835;28;20464;-56
2022/10/14 01:26:58;;;;;;;30.07;26.63;;;13.60;99.90;;;;;;6254285;28;20809;-56
2022/10/14 01:30:12;;;;;;;32.53;29.13;;;13.60;99.90;;;;;;6253854;28;20489;-56
2022/10/14 01:33:20;;;;;;;33.23;29.60;;;13.50;99.90;;;;;;6253822;28;20475;-56
2022/10/14 01:36:30;;;;;;;33.50;29.87;;;13.50;99.90;;;;;;6246499;28;20476;-56
2022/10/14 01:39:39;;;;;;;36.20;29.87;;;13.40;99.90;;;;;;6233306;28;20464;-56
2022/10/14 01:42:44;;;;;;;33.07;29.60;;;13.40;99.90;;;;;;6252900;28;20501;-56
2022/10/14 01:45:50;;;;;;;34.17;27.90;;;13.40;99.90;;;;;;6248723;28;20563;-56
2022/10/14 01:48:58;;;;;;;34.93;29.17;;;13.30;99.90;;;;;;6238818;28;20463;-56
2022/10/14 01:52:05;;;;;;;32.80;29.30;;;13.30;99.90;;;;;;6241130;28;20486;-56
2022/10/14 01:55:13;;;;;;;33.73;27.77;;;13.30;99.90;;;;;;6239602;28;20812;-56
2022/10/14 01:58:19;;;;;;;32.27;28.97;;;13.20;99.90;;;;;;6233922;28;20530;-56
2022/10/14 02:01:24;;;;;;;35.77;29.77;;;13.10;99.90;;;;;;6237615;28;20808;-56
2022/10/14 02:04:27;;;;;;;32.60;28.53;;;13.00;99.90;;;;;;6235388;28;20472;-56
2022/10/14 02:07:38;;;;;;;30.73;27.10;;;13.00;99.90;;;;;;6241570;28;20971;-56
2022/10/14 02:11:00;;;;;;;33.87;30.17;;;13.00;99.90;;;;;;6245705;28;20525;-56
2022/10/14 02:14:11;;;;;;;33.40;29.13;;;13.10;99.90;;;;;;6251920;28;20464;-56
2022/10/14 02:17:21;;;;;;;34.57;26.77;;;13.00;99.90;;;;;;6253053;28;20529;-56
2022/10/14 02:20:29;;;;;;;33.33;28.13;;;13.00;99.90;;;;;;6252683;28;20479;-56
2022/10/14 02:23:37;;;;;;;31.70;26.43;;;13.00;99.90;;;;;;6252615;28;20536;-57
2022/10/14 02:26:42;;;;;;;30.67;27.33;;;13.00;99.90;;;;;;6252449;28;20468;-57
2022/10/14 02:29:47;;;;;;;36.40;28.93;;;13.00;99.90;;;;;;6252488;28;20483;-57
2022/10/14 02:32:52;;;;;;;33.60;29.67;;;13.00;99.90;;;;;;6252514;28;20617;-56
2022/10/14 02:35:56;;;;;;;32.53;29.07;;;12.90;99.90;;;;;;6252184;28;20482;-56
2022/10/14 02:39:01;;;;;;;37.63;30.20;;;12.90;99.90;;;;;;6251921;28;20471;-56
2022/10/14 02:42:05;;;;;;;34.00;29.77;;;12.80;99.90;;;;;;6251031;28;20479;-56
2022/10/14 02:45:10;;;;;;;31.83;28.43;;;12.70;99.90;;;;;;6250109;28;20838;-56
2022/10/14 02:48:15;;;;;;;32.33;27.63;;;12.70;99.90;;;;;;6249917;28;20482;-56
2022/10/14 02:51:18;;;;;;;30.03;26.60;;;12.80;99.90;;;;;;6250056;28;20478;-56
2022/10/14 02:54:21;;;;;;;35.37;27.93;;;12.80;99.90;;;;;;6249448;28;20483;-56
2022/10/14 02:57:24;;;;;;;30.23;26.97;;;12.80;99.90;;;;;;6250148;28;20952;-56
2022/10/14 03:00:27;;;;;;;34.23;27.57;;;12.70;99.90;;;;;;6251111;28;20467;-56
2022/10/14 03:03:32;;;;;;;35.53;30.07;;;12.50;99.90;;;;;;6250977;28;20513;-56
2022/10/14 03:06:35;;;;;;;32.77;29.00;;;12.40;99.90;;;;;;6250910;28;20990;-56
2022/10/14 03:09:38;;;;;;;35.03;28.83;;;12.30;99.90;;;;;;6250727;28;20537;-56
2022/10/14 03:12:41;;;;;;;35.50;31.30;;;12.40;99.90;;;;;;6251066;28;20516;-57
2022/10/14 03:15:44;;;;;;;34.17;29.30;;;12.30;99.90;;;;;;6250438;28;20471;-57
2022/10/14 03:18:49;;;;;;;44.27;29.10;;;12.30;99.90;;;;;;6250550;28;20466;-57
2022/10/14 03:21:52;;;;;;;31.60;28.30;;;12.30;99.90;;;;;;6250405;28;20486;-57
2022/10/14 03:24:55;;;;;;;30.43;27.23;;;12.20;99.90;;;;;;6250609;28;20475;-57
2022/10/14 03:27:58;;;;;;;32.97;29.50;;;12.10;99.90;;;;;;6250403;28;20561;-56
2022/10/14 03:31:01;;;;;;;83.57;33.30;;;12.00;99.90;;;;;;6250654;28;20475;-56
2022/10/14 03:34:06;;;;;;;60.03;30.87;;;12.00;99.90;;;;;;6250453;28;20475;-56
2022/10/14 03:37:09;;;;;;;41.80;31.60;;;11.90;99.90;;;;;;6249795;28;20498;-56
2022/10/14 03:40:12;;;;;;;36.93;30.37;;;11.80;99.90;;;;;;6249973;28;20479;-56
2022/10/14 03:43:16;;;;;;;34.10;29.47;;;11.80;99.90;;;;;;6250171;28;20483;-56
2022/10/14 03:46:19;;;;;;;29.77;26.73;;;11.70;99.90;;;;;;6245303;28;20491;-56
2022/10/14 03:49:23;;;;;;;29.77;26.63;;;11.70;99.90;;;;;;6249753;28;20486;-56
2022/10/14 03:52:26;;;;;;;32.57;27.33;;;11.70;99.90;;;;;;6249261;28;20537;-56
2022/10/14 03:55:30;;;;;;;31.67;28.13;;;11.80;99.90;;;;;;6249905;28;20972;-56
2022/10/14 03:58:33;;;;;;;32.03;28.60;;;11.80;99.90;;;;;;6249119;28;20983;-56
2022/10/14 04:01:36;;;;;;;29.53;26.53;;;11.80;99.90;;;;;;6249124;28;20476;-56
2022/10/14 04:04:41;;;;;;;34.20;28.03;;;11.70;99.90;;;;;;6249610;28;20497;-57
2022/10/14 04:07:44;;;;;;;31.23;26.87;;;11.70;99.90;;;;;;6249345;28;21034;-57
2022/10/14 04:10:52;;;;;;;31.43;28.10;;;11.60;99.90;;;;;;6249458;28;20455;-58
2022/10/14 04:13:58;;;;;;;30.40;27.10;;;11.60;99.90;;;;;;6249512;28;20455;-57
2022/10/14 04:17:01;;;;;;;32.50;29.10;;;11.50;99.90;;;;;;6249596;28;20428;-57
2022/10/14 04:20:06;;;;;;;33.17;29.70;;;11.50;99.90;;;;;;6249875;28;20447;-57
2022/10/14 04:23:09;;;;;;;37.20;29.63;;;11.50;99.90;;;;;;6249493;28;20456;-57
2022/10/14 04:26:13;;;;;;;32.80;29.30;;;11.50;99.90;;;;;;6249204;28;20470;-57
2022/10/14 04:29:16;;;;;;;32.43;28.97;;;11.50;99.90;;;;;;6248886;28;20932;-58
2022/10/14 04:32:19;;;;;;;33.77;30.17;;;11.40;99.90;;;;;;6248432;28;20487;-58
2022/10/14 04:35:24;;;;;;;36.33;29.93;;;11.40;99.90;;;;;;6248955;28;20471;-57
2022/10/14 04:38:28;;;;;;;28.97;25.83;;;11.50;99.90;;;;;;6248730;28;20490;-56
2022/10/14 04:41:31;;;;;;;30.50;27.30;;;11.50;99.90;;;;;;6250523;28;20479;-56
2022/10/14 04:44:34;;;;;;;31.43;28.13;;;11.40;99.90;;;;;;6250466;28;20487;-56
2022/10/14 04:47:37;;;;;;;31.20;27.00;;;11.40;99.90;;;;;;6249203;28;20485;-58
2022/10/14 04:50:42;;;;;;;34.93;30.43;;;11.30;99.90;;;;;;6235070;28;20959;-58
2022/10/14 04:53:45;;;;;;;30.67;26.83;;;11.30;99.90;;;;;;6248594;28;20483;-58
2022/10/14 04:56:48;;;;;;;32.70;29.20;;;11.30;99.90;;;;;;6249292;28;20482;-57
2022/10/14 04:59:51;;;;;;;33.23;29.70;;;11.20;99.90;;;;;;6248738;28;20483;-58
2022/10/14 05:02:54;;;;;;;32.77;29.27;;;11.20;99.90;;;;;;6248825;28;20487;-57
2022/10/14 05:05:59;;;;;;;30.90;27.60;;;11.30;99.90;;;;;;6248217;28;20475;-57
2022/10/14 05:09:02;;;;;;;36.07;32.20;;;11.30;99.90;;;;;;6248783;28;20479;-58
2022/10/14 05:12:06;;;;;;;33.10;29.60;;;11.30;99.90;;;;;;6248014;28;20486;-59
2022/10/14 05:15:09;;;;;;;31.27;27.73;;;11.40;99.90;;;;;;6224673;28;20506;-58
2022/10/14 05:18:13;;;;;;;34.77;28.97;;;11.40;99.90;;;;;;6228567;28;20538;-58
2022/10/14 05:21:17;;;;;;;31.30;26.63;;;11.40;99.90;;;;;;6245908;28;20471;-57
2022/10/14 05:24:20;;;;;;;34.90;27.80;;;11.40;99.90;;;;;;6248465;28;20483;-57
2022/10/14 05:27:23;;;;;;;32.83;29.40;;;11.40;99.90;;;;;;6249071;28;20532;-58
2022/10/14 05:30:27;;;;;;;32.03;28.67;;;11.50;99.90;;;;;;6248454;28;20482;-58
2022/10/14 05:33:36;;;;;;;34.20;27.67;;;11.50;99.90;;;;;;6248187;28;20893;-57
2022/10/14 05:36:41;;;;;;;35.53;28.27;;;11.50;99.90;;;;;;6248341;28;20483;-55
2022/10/14 05:39:44;;;;;;;31.00;27.57;;;11.60;99.90;;;;;;6247922;28;20478;-56
2022/10/14 05:42:47;;;;;;;34.53;28.37;;;11.60;99.90;;;;;;6250505;28;20467;-56
2022/10/14 05:45:50;;;;;;;31.30;28.10;;;11.60;99.90;;;;;;6252593;28;20478;-57
2022/10/14 05:48:53;;;;;;;30.77;27.53;;;11.50;99.90;;;;;;6252528;28;20475;-57
2022/10/14 05:51:58;;;;;;;30.80;27.43;;;11.60;99.90;;;;;;6252619;28;20494;-57
2022/10/14 05:55:01;;;;;;;30.73;27.43;;;11.60;99.90;;;;;;6252678;28;21021;-56
2022/10/14 05:58:04;;;;;;;31.20;27.37;;;11.70;99.90;;;;;;6252502;28;20541;-56
2022/10/14 06:01:10;;;;;;;37.20;28.53;;;11.80;99.90;;;;;;6252319;28;20836;-57
2022/10/14 06:04:17;;;;;;;35.00;27.60;;;11.90;99.90;;;;;;6252192;28;20487;-57
2022/10/14 06:07:22;;;;;;;29.93;26.33;;;12.00;99.90;;;;;;6252387;28;20489;-57
2022/10/14 06:10:26;;;;;;;31.47;28.17;;;12.10;99.90;;;;;;6252182;28;20483;-58
2022/10/14 06:13:29;;;;;;;32.73;29.30;;;12.10;99.90;;;;;;6251368;28;20609;-58
2022/10/14 06:16:32;;;;;;;33.40;29.90;;;12.20;99.90;;;;;;6252453;28;20487;-57
2022/10/14 06:19:35;;;;;;;30.87;27.87;;;12.30;99.90;;;;;;6252598;28;20479;-57
2022/10/14 06:22:40;;;;;;;32.07;28.60;;;12.40;99.90;;;;;;6252332;28;20479;-57
2022/10/14 06:25:43;;;;;;;30.37;27.23;;;12.50;99.90;;;;;;6251937;28;20964;-58
2022/10/14 06:28:46;;;;;;;33.20;27.57;;;12.60;99.90;;;;;;6246406;28;20450;-58
2022/10/14 06:31:50;;;;;;;31.90;26.30;;;12.70;99.90;;;;;;6230507;28;20455;-57
2022/10/14 06:34:53;;;;;;;28.40;25.43;;;12.80;99.90;;;;;;6226648;28;20460;-58
2022/10/14 06:37:58;;;;;;;29.17;25.97;;;13.00;99.90;;;;;;6226660;28;20448;-57
2022/10/14 06:41:01;;;;;;;26.23;23.13;;;13.00;99.90;;;;;;6226709;28;20448;-58
2022/10/14 06:44:04;;;;;;;23.97;21.47;;;13.10;99.90;;;;;;6226757;28;20565;-56
2022/10/14 06:47:08;;;;;;;23.87;21.30;;;13.20;99.90;;;;;;6226747;28;20929;-56
2022/10/14 06:50:11;;;;;;;24.73;22.00;;;13.40;99.90;;;;;;6227126;28;20522;-58
2022/10/14 06:53:15;;;;;;;23.37;21.17;;;13.50;99.90;;;;;;6225379;28;20476;-56
2022/10/14 06:56:18;;;;;;;27.10;21.73;;;13.60;99.90;;;;;;6216263;28;20472;-55
2022/10/14 06:59:22;;;;;;;24.73;22.13;;;13.60;99.90;;;;;;6225200;28;20822;-56
2022/10/14 07:02:25;;;;;;;26.97;21.63;;;13.60;99.90;;;;;;6225212;28;20488;-57
2022/10/14 07:05:28;;;;;;;23.93;21.33;;;13.80;99.90;;;;;;6225720;28;20475;-56
2022/10/14 07:08:33;;;;;;;25.83;22.50;;;13.90;99.90;;;;;;6226592;28;20538;-56
2022/10/14 07:11:36;;;;;;;24.93;22.23;;;14.00;99.90;;;;;;6226538;28;20480;-57
2022/10/14 07:14:39;;;;;;;23.47;21.23;;;14.10;99.90;;;;;;6226613;28;20468;-57
2022/10/14 07:17:42;;;;;;;25.97;23.33;;;14.20;99.90;;;;;;6226281;28;20491;-58
2022/10/14 07:20:45;;;;;;;25.93;23.40;;;14.30;99.90;;;;;;6226633;28;20546;-58
2022/10/14 07:23:50;;;;;;;26.17;23.37;;;14.30;99.90;;;;;;6225900;28;20492;-58
2022/10/14 07:26:53;;;;;;;25.07;22.37;;;14.30;99.90;;;;;;6226447;28;20483;-56
2022/10/14 07:29:57;;;;;;;24.20;21.97;;;14.50;99.90;;;;;;6226227;28;20938;-58
2022/10/14 07:33:00;;;;;;;29.10;22.50;;;14.60;99.90;;;;;;6225888;28;20503;-58
2022/10/14 07:36:05;;;;;;;23.23;20.90;;;14.80;99.90;;;;;;6225733;28;21008;-56
2022/10/14 07:39:09;;;;;;;25.67;23.07;;;14.90;99.90;;;;;;6226200;28;20480;-57
2022/10/14 07:42:13;;;;;;;25.80;22.93;;;15.00;99.90;;;;;;6226362;28;20479;-56
2022/10/14 07:45:17;;;;;;;27.43;24.60;;;15.10;99.90;;;;;;6226261;28;20627;-56
2022/10/14 07:48:20;;;;;;;26.10;23.30;;;15.10;99.90;;;;;;6230032;28;20980;-56
2022/10/14 07:51:41;;;;;;;25.53;23.23;;;15.10;99.90;;;;;;6228221;28;20924;-56
2022/10/14 07:54:46;;;;;;;29.87;24.10;;;15.30;99.90;;;;;;6226315;28;20468;-58
2022/10/14 07:57:49;;;;;;;26.77;23.87;;;15.50;99.90;;;;;;6225383;28;20487;-58
2022/10/14 08:00:53;;;;;;;22.27;20.03;;;15.80;99.90;;;;;;6220383;28;20472;-58
2022/10/14 08:03:56;;;;;;;23.70;21.37;;;16.10;99.90;;;;;;6224298;28;20950;-56
2022/10/14 08:07:00;;;;;;;21.80;19.67;;;16.40;99.90;;;;;;6224882;28;20476;-56
2022/10/14 08:10:05;;;;;;;22.00;19.90;;;16.70;99.90;;;;;;6224835;28;20464;-56
2022/10/14 08:13:08;;;;;;;22.87;20.67;;;18.90;99.90;;;;;;6225489;28;20942;-56
2022/10/14 08:16:15;;;;;;;24.00;20.90;;;21.40;98.50;;;;;;6225051;28;20248;-57
2022/10/14 08:19:18;;;;;;;23.23;21.27;;;23.90;93.70;;;;;;6225522;28;20232;-58
2022/10/14 08:22:21;;;;;;;23.60;21.53;;;25.80;83.00;;;;;;6225256;28;20588;-58
2022/10/14 08:25:26;;;;;;;24.77;22.20;;;26.90;74.50;;;;;;6225072;28;20531;-56
2022/10/14 08:28:30;;;;;;;24.87;22.67;;;28.10;65.60;;;;;;6224434;28;20233;-59
2022/10/14 08:31:33;;;;;;;24.87;22.77;;;29.00;61.10;;;;;;6235686;28;20334;-60
2022/10/14 08:34:36;;;;;;;24.23;22.37;;;29.70;56.40;;;;;;6239729;28;20234;-60
2022/10/14 08:37:40;;;;;;;23.42;21.52;;;31.10;52.80;;;;;;6243843;28;20227;-60
2022/10/14 08:41:02;;;;;;;25.13;23.17;;;32.40;48.90;;;;;;6224950;28;20232;-59
2022/10/14 08:44:16;;;;;;;24.88;22.80;;;33.60;45.30;;;;;;6224887;28;20220;-60
2022/10/14 08:47:25;;;;;;;25.35;23.30;;;34.10;42.00;;;;;;6238538;28;20684;-60
2022/10/14 08:50:37;;;;;;;26.17;23.98;;;34.00;42.00;;;;;;6249492;28;20241;-61
2022/10/14 08:53:45;;;;;;;24.95;22.98;;;34.00;41.10;;;;;;6248873;28;20232;-60
2022/10/14 08:56:49;;;;;;;23.77;21.58;;;34.90;39.70;;;;;;6249411;28;20239;-61
2022/10/14 08:59:53;;;;;;;26.35;24.15;;;35.40;38.70;;;;;;6249128;28;20248;-61
2022/10/14 09:02:58;;;;;;;25.38;23.27;;;36.30;37.30;;;;;;6241578;28;20249;-61
2022/10/14 09:06:04;;;;;;;23.92;22.13;;;37.30;35.70;;;;;;6224817;28;20254;-61
2022/10/14 09:09:14;;;;;;;25.23;23.13;;;37.10;34.80;;;;;;6225129;28;20297;-60
2022/10/14 09:12:22;;;;;;;25.10;23.17;;;35.90;36.70;;;;;;6224765;28;20236;-60
2022/10/14 09:15:32;;;;;;;25.25;23.35;;;36.30;35.80;;;;;;6225094;28;20239;-60
2022/10/14 09:18:40;;;;;;;25.15;23.25;;;36.30;35.70;;;;;;6228963;28;20701;-60
2022/10/14 09:21:48;;;;;;;25.02;23.13;;;37.60;33.80;;;;;;6229145;28;20679;-61
2022/10/14 09:24:55;;;;;;;23.90;22.00;;;38.00;33.30;;;;;;6228915;28;20237;-61
2022/10/14 09:27:59;;;;;;;23.50;21.60;;;39.00;32.00;;;;;;6228773;28;20603;-61
2022/10/14 09:31:03;;;;;;;23.70;21.88;;;39.60;31.00;;;;;;6228834;28;20449;-60
2022/10/14 09:34:09;;;;;;;23.70;22.00;;;40.30;30.00;;;;;;6228857;28;20692;-61
2022/10/14 09:37:28;;;;;;;23.85;21.85;;;39.70;30.00;;;;;;6230357;28;20230;-60
2022/10/14 09:40:33;;;;;;;24.48;22.63;;;40.00;30.00;;;;;;6253443;28;20668;-60
2022/10/14 09:43:38;;;;;;;22.88;20.92;;;40.50;29.40;;;;;;6253229;28;20561;-60
2022/10/14 09:46:42;;;;;;;25.17;23.27;;;40.80;29.10;;;;;;6252545;28;20237;-61
2022/10/14 09:49:48;;;;;;;24.02;22.42;;;39.70;29.50;;;;;;6253883;28;20569;-61
2022/10/14 09:53:00;;;;;;;25.33;23.23;;;40.40;29.60;;;;;;6253107;28;20242;-61
2022/10/14 09:56:06;;;;;;;25.50;23.08;;;40.70;28.80;;;;;;6253631;28;20191;-60
2022/10/14 09:59:17;;;;;;;24.25;22.15;;;40.90;28.60;;;;;;6253026;28;20251;-61
2022/10/14 10:02:24;;;;;;;27.08;24.67;;;41.00;28.80;;;;;;6253056;28;20240;-61
2022/10/14 10:05:29;;;;;;;25.00;23.10;;;41.10;28.00;;;;;;6230312;28;20287;-61
2022/10/14 10:08:33;;;;;;;24.33;22.25;;;41.50;28.10;;;;;;6238896;28;20241;-61
2022/10/14 10:11:37;;;;;;;25.85;23.90;;;41.70;27.60;;;;;;6240902;28;20238;-61
2022/10/14 10:14:55;;;;;;;25.83;23.48;;;42.30;27.30;;;;;;6229946;28;20234;-61
2022/10/14 10:17:58;;;;;;;24.15;22.40;;;41.30;27.50;;;;;;6228335;28;20255;-60
2022/10/14 10:21:05;;;;;;;24.70;22.70;;;40.60;28.30;;;;;;6229085;28;20233;-60
2022/10/14 10:24:20;;;;;;;25.48;23.75;;;41.60;27.80;;;;;;6228447;28;20231;-61
2022/10/14 10:27:34;;;;;;;24.77;22.80;;;42.40;26.80;;;;;;6226997;28;20226;-62
2022/10/14 10:30:43;;;;;;;26.20;24.20;;;42.60;26.40;;;;;;6227722;28;20245;-60
2022/10/14 10:33:54;;;;;;;27.70;25.30;;;42.50;26.40;;;;;;6227901;28;20655;-60
2022/10/14 10:37:04;;;;;;;26.27;24.38;;;42.30;26.10;;;;;;6227595;28;20475;-60
2022/10/14 10:40:24;;;;;;;27.90;25.73;;;42.00;26.50;;;;;;6227454;28;20238;-60
2022/10/14 10:43:52;;;;;;;25.30;23.50;;;41.10;26.80;;;;;;6227729;28;20338;-60
2022/10/14 10:47:14;;;;;;;27.80;25.13;;;41.30;27.30;;;;;;6227000;28;20237;-60
2022/10/14 10:50:28;;;;;;;25.15;22.92;;;42.30;26.30;;;;;;6227512;28;20230;-60
2022/10/14 10:53:56;;;;;;;23.70;22.00;;;42.80;26.00;;;;;;6227198;28;20240;-61
2022/10/14 10:57:03;;;;;;;28.30;26.05;;;43.10;25.70;;;;;;6226799;28;20295;-61
2022/10/14 11:00:12;;;;;;;26.75;24.60;;;41.60;25.40;;;;;;6226498;28;20232;-60
2022/10/14 11:03:30;;;;;;;30.80;28.40;;;40.40;26.00;;;;;;6226452;28;20560;-61
2022/10/14 11:13:37;;;;;;;31.60;28.90;;;33.20;34.50;;;;;;6217598;28;20231;-60
2022/10/14 11:16:48;;;;;;;32.38;29.35;;;31.00;37.50;;;;;;6226605;28;20282;-60
2022/10/14 11:20:04;;;;;;;30.30;27.47;;;28.90;41.30;;;;;;6226707;28;20224;-60
2022/10/14 11:23:27;;;;;;;30.43;27.53;;;27.70;43.80;;;;;;6226919;28;20229;-60
2022/10/14 11:27:01;;;;;;;33.10;30.10;;;27.00;45.20;;;;;;6226138;28;20236;-60
2022/10/14 11:30:17;;;;;;;31.70;28.57;;;26.10;47.20;;;;;;6226666;28;20236;-59
2022/10/14 11:33:37;;;;;;;31.30;28.33;;;26.00;47.80;;;;;;6226131;28;20328;-61
2022/10/14 11:36:54;;;;;;;31.33;28.60;;;25.90;47.80;;;;;;6226059;28;20243;-61
2022/10/14 11:40:00;;;;;;;32.03;28.73;;;26.30;48.00;;;;;;6201764;28;20602;-60
2022/10/14 11:43:18;;;;;;;29.23;26.63;;;29.60;43.50;;;;;;6201411;28;20756;-61
2022/10/14 11:46:25;;;;;;;31.75;29.08;;;32.10;39.50;;;;;;6202061;28;20312;-61
2022/10/14 11:49:33;;;;;;;32.03;29.25;;;33.20;36.40;;;;;;6201413;28;20232;-60
2022/10/14 11:52:43;;;;;;;32.67;29.77;;;32.60;36.90;;;;;;6217274;28;20244;-60
2022/10/14 11:55:52;;;;;;;32.78;29.92;;;32.60;37.00;;;;;;6226445;28;20219;-61
2022/10/14 11:58:59;;;;;;;34.10;30.90;;;32.90;36.90;;;;;;6236178;28;20232;-60
2022/10/14 12:02:11;;;;;;;32.75;29.88;;;35.40;33.70;;;;;;6236323;28;20230;-60
2022/10/14 12:05:21;;;;;;;32.22;29.48;;;36.90;31.10;;;;;;6237272;28;20260;-60
2022/10/14 12:08:32;;;;;;;31.73;28.92;;;37.70;30.10;;;;;;6245440;28;20270;-61
2022/10/14 12:11:44;;;;;;;32.13;29.30;;;38.00;29.50;;;;;;6246221;28;20240;-64
2022/10/14 12:14:51;;;;;;;31.70;29.05;;;40.00;28.90;;;;;;6243507;28;20225;-64
2022/10/14 12:17:57;;;;;;;30.75;28.42;;;41.30;26.50;;;;;;6228228;28;20234;-64
2022/10/14 12:21:18;;;;;;;32.30;29.85;;;40.90;25.90;;;;;;6224924;28;20559;-64
2022/10/14 12:24:26;;;;;;;32.60;30.02;;;39.20;27.00;;;;;;6225325;28;20252;-64
2022/10/14 12:27:30;;;;;;;31.67;28.90;;;37.80;28.90;;;;;;6224839;28;20695;-63
2022/10/14 12:30:36;;;;;;;32.47;29.75;;;38.10;28.70;;;;;;6225265;28;20368;-64
2022/10/14 12:34:16;;;;;;;30.73;28.08;;;38.30;28.70;;;;;;6230403;28;20242;-64
2022/10/14 12:37:49;;;;;;;33.92;31.23;;;38.80;27.90;;;;;;6228726;28;20224;-62
2022/10/14 12:40:54;;;;;;;35.05;31.90;;;36.50;29.90;;;;;;6216647;28;20239;-62
2022/10/14 12:44:02;;;;;;;33.88;31.23;;;35.60;31.00;;;;;;6231897;28;20219;-63
2022/10/14 12:47:15;;;;;;;32.60;30.10;;;34.90;31.50;;;;;;6248324;28;20219;-63
2022/10/14 12:50:29;;;;;;;33.17;30.48;;;36.10;30.90;;;;;;6249427;28;20293;-62
2022/10/14 12:53:34;;;;;;;36.22;33.03;;;37.00;29.60;;;;;;6253827;28;20231;-62
2022/10/14 12:56:43;;;;;;;37.47;34.47;;;34.10;33.00;;;;;;6254508;28;20226;-62
2022/10/14 12:59:51;;;;;;;36.70;33.50;;;33.20;34.70;;;;;;6254384;28;20228;-62
2022/10/14 13:02:58;;;;;;;38.25;35.15;;;33.10;34.50;;;;;;6254217;28;20243;-65
2022/10/14 13:06:34;;;;;;;38.53;35.28;;;31.70;36.40;;;;;;6254594;28;20254;-64
2022/10/14 13:09:37;;;;;;;41.50;37.20;;;31.10;37.00;;;;;;6228068;28;20239;-64
2022/10/14 13:12:43;;;;;;;38.00;34.73;;;29.70;39.10;;;;;;6229616;28;20243;-63
2022/10/14 13:15:51;;;;;;;35.15;32.10;;;29.00;41.00;;;;;;6229709;28;20238;-64
2022/10/14 13:18:56;;;;;;;33.58;30.77;;;30.80;38.70;;;;;;6239795;28;20358;-64
2022/10/14 13:22:00;;;;;;;34.85;31.67;;;31.40;36.90;;;;;;6254012;28;20243;-63
2022/10/14 13:25:11;;;;;;;36.10;33.10;;;31.70;36.90;;;;;;6253291;28;20238;-65
2022/10/14 13:28:25;;;;;;;36.17;32.90;;;32.70;35.30;;;;;;6253959;28;20231;-64
2022/10/14 13:31:36;;;;;;;37.97;34.33;;;32.90;34.80;;;;;;6230644;28;20236;-65
2022/10/14 13:34:49;;;;;;;40.63;36.85;;;32.40;35.30;;;;;;6229293;28;20229;-64
2022/10/14 13:37:58;;;;;;;41.28;37.83;;;31.30;36.50;;;;;;6234999;28;20266;-65
2022/10/14 13:41:03;;;;;;;43.83;40.10;;;29.90;38.90;;;;;;6231755;28;20235;-65
2022/10/14 13:44:12;;;;;;;43.27;39.40;;;28.70;41.20;;;;;;6285288;23;20231;-64
2022/10/14 13:47:19;;;;;;;41.13;37.63;;;27.80;43.00;;;;;;6281966;28;20245;-65
2022/10/14 13:50:27;;;;;;;44.60;40.50;;;27.10;44.20;;;;;;6293063;28;20246;-64
2022/10/14 13:53:30;;;;;;;41.73;38.03;;;26.20;45.70;;;;;;6258282;28;20224;-64
2022/10/14 13:56:34;;;;;;;43.57;39.50;;;24.80;48.90;;;;;;6238470;28;20240;-65
2022/10/14 13:59:41;;;;;;;44.70;40.17;;;24.10;50.30;;;;;;6239670;28;20318;-64
2022/10/14 14:03:15;;;;;;;43.27;39.17;;;23.80;51.10;;;;;;6228055;28;20241;-63
2022/10/14 14:06:21;;;;;;;37.80;34.13;;;23.20;52.00;;;;;;6276043;28;20569;-62
2022/10/14 14:09:27;;;;;;;40.13;36.33;;;22.30;53.80;;;;;;6276971;28;20235;-63
2022/10/14 14:12:30;;;;;;;38.07;34.27;;;21.80;54.90;;;;;;6276171;28;20693;-63
2022/10/14 14:15:36;;;;;;;39.07;35.27;;;21.50;55.90;;;;;;6276349;28;20246;-64
2022/10/14 14:18:47;;;;;;;36.73;33.30;;;21.30;56.70;;;;;;6257410;28;20232;-63
2022/10/14 14:22:17;;;;;;;38.30;34.50;;;21.10;57.40;;;;;;6251674;28;20573;-63
2022/10/14 14:25:24;;;;;;;38.50;34.77;;;21.00;58.30;;;;;;6250416;28;20247;-63
2022/10/14 14:28:37;;;;;;;38.20;34.47;;;21.00;58.90;;;;;;6250921;28;20684;-63
2022/10/14 14:31:44;;;;;;;38.50;34.60;;;21.20;59.10;;;;;;6227573;28;20296;-63
2022/10/14 14:35:12;;;;;;;38.00;34.03;;;21.20;59.10;;;;;;6226200;28;20500;-63
2022/10/14 14:38:28;;;;;;;38.37;34.33;;;21.00;59.10;;;;;;6239243;28;20237;-63
2022/10/14 14:41:32;;;;;;;37.97;34.07;;;20.90;59.50;;;;;;6252159;28;20327;-63
2022/10/14 14:44:36;;;;;;;36.90;33.00;;;20.90;59.80;;;;;;6252312;28;20563;-63
2022/10/14 14:47:41;;;;;;;39.37;35.43;;;20.80;60.50;;;;;;6252625;28;20240;-63
2022/10/14 14:50:45;;;;;;;39.10;35.30;;;20.50;61.70;;;;;;6252611;28;20243;-63
2022/10/14 14:53:52;;;;;;;39.87;35.77;;;20.40;62.60;;;;;;6252023;28;20543;-64
2022/10/14 14:57:02;;;;;;;41.93;37.77;;;20.50;62.90;;;;;;6251507;28;20242;-63
2022/10/14 15:00:07;;;;;;;39.73;35.73;;;20.50;63.70;;;;;;6252025;28;20239;-64
2022/10/14 15:03:12;;;;;;;39.03;35.30;;;20.50;63.80;;;;;;6251571;28;20709;-63
2022/10/14 15:06:16;;;;;;;40.57;36.67;;;20.30;63.70;;;;;;6251810;28;20597;-63
2022/10/14 15:09:26;;;;;;;39.57;35.67;;;20.10;65.40;;;;;;6251467;28;20255;-62
2022/10/14 15:12:33;;;;;;;38.60;34.93;;;20.10;66.10;;;;;;6251048;28;20271;-63
2022/10/14 15:15:36;;;;;;;40.00;36.10;;;20.00;67.10;;;;;;6250644;28;20670;-63
2022/10/14 15:18:42;;;;;;;41.70;36.67;;;19.90;68.00;;;;;;6251026;28;20695;-62
2022/10/14 15:21:46;;;;;;;40.83;36.80;;;19.90;68.30;;;;;;6241832;28;20236;-62
2022/10/14 15:25:05;;;;;;;41.73;37.53;;;19.90;68.80;;;;;;6250958;28;20236;-63
2022/10/14 15:28:29;;;;;;;37.00;33.13;;;19.70;70.00;;;;;;6251401;28;20229;-64
2022/10/14 15:31:33;;;;;;;38.17;34.27;;;19.50;70.80;;;;;;6227700;28;20233;-63
2022/10/14 15:34:37;;;;;;;38.87;35.00;;;19.40;71.90;;;;;;6229151;28;20240;-63
2022/10/14 15:37:41;;;;;;;39.00;34.70;;;19.20;73.60;;;;;;6230114;28;20295;-63
2022/10/14 15:40:45;;;;;;;39.23;35.33;;;19.10;74.70;;;;;;6226842;28;20283;-63
2022/10/14 15:43:48;;;;;;;40.93;36.63;;;18.90;75.80;;;;;;6228968;28;20252;-63
2022/10/14 15:50:17;;;;;;;41.53;37.17;;;18.80;77.70;;;;;;6227810;28;20240;-63
2022/10/14 15:53:20;;;;;;;43.67;35.33;;;18.70;79.40;;;;;;6226687;28;20245;-63
2022/10/14 15:56:23;;;;;;;38.83;34.80;;;18.70;80.40;;;;;;6225838;28;20236;-63
2022/10/14 15:59:27;;;;;;;42.20;36.37;;;18.70;81.20;;;;;;6225670;28;20240;-63
2022/10/14 16:02:33;;;;;;;46.53;39.80;;;18.70;82.50;;;;;;6225147;28;20241;-63